»·PEaware :: COWBOY21 KLSV-KLSV

COWBOY21 :: KLSV-KLSV

FLIGHT INFORMATION

Flight Status: Arrived
Operator: Unknown
More flights by this operator :: More flights under this callsign
Pilot: Anonymous 3903 (3903)
Aircraft: NORTHROP F-5 FREEDON FIGHTER
(F5)
More flights by this aircraft type
Origin: KLSV Nellis AFB
United States
Destination: KLSV Nellis AFB
United States
More flights between these airports :: More routes between these airports
Route: +
File this flight plan on PilotEdge
Remarks:
Altitude:
(Current/Filed)
0ft
Speed:
(Current/Filed)
0kts
Departed: 09-Nov-16 03:39 PM
Arrived: 09-Nov-16 04:21 PM
Distance/Time
Traveled:
0nm/0:42
Distance/Time
To Go:
Arrived

Flight Plot

Page will automatically refresh every two minutes.


Map Options




Map Legend


Flown Route
Filed Route
Departure Airport
Arrival Airport
Navaid (VOR, NDB)
Fix

Horizontal Profiles

Position Reports

Time Latitude Longitude Heading Altitude Ground
Speed
09-Nov-16 15:22 36.232362 -115.022567 273 1850ft 0kts
09-Nov-16 15:23 36.232362 -115.022567 273 1850ft 0kts
09-Nov-16 15:24 36.232362 -115.022567 273 1850ft 0kts
09-Nov-16 15:25 36.232362 -115.022567 273 1850ft 0kts
09-Nov-16 15:26 36.232302 -115.023116 240 1849ft 14kts
09-Nov-16 15:27 36.230731 -115.030360 270 1847ft 24kts
09-Nov-16 15:28 36.226503 -115.036242 220 1847ft 19kts
09-Nov-16 15:29 36.223355 -115.041911 310 1846ft 24kts
09-Nov-16 15:30 36.224133 -115.043002 310 1846ft 0kts
09-Nov-16 15:31 36.224133 -115.043002 310 1846ft 0kts
09-Nov-16 15:32 36.225509 -115.043669 41 1846ft 0kts
09-Nov-16 15:33 36.243897 -115.023859 39 2021ft 232kts
09-Nov-16 15:34 36.310194 -115.020003 330 4841ft 251kts
09-Nov-16 15:35 36.372465 -115.058270 332 7439ft 272kts
09-Nov-16 15:36 36.455084 -115.108621 340 9101ft 371kts
09-Nov-16 15:37 36.561437 -115.104800 16 12498ft 399kts
09-Nov-16 15:38 36.669845 -115.058108 17 15556ft 418kts
09-Nov-16 15:39 36.791235 -115.012383 13 15708ft 475kts
09-Nov-16 15:40 36.922166 -114.980195 6 16499ft 492kts
09-Nov-16 15:41 37.047084 -114.950508 27 16284ft 437kts
09-Nov-16 15:42 37.158563 -114.865904 31 17471ft 461kts
09-Nov-16 15:43 37.283865 -114.822438 343 17398ft 492kts
09-Nov-16 15:44 37.361933 -114.948927 266 17038ft 479kts
09-Nov-16 15:45 37.337843 -115.100691 257 17266ft 429kts
09-Nov-16 15:46 37.311562 -115.252544 256 17268ft 456kts
09-Nov-16 15:47 37.332086 -115.404621 312 17400ft 463kts
09-Nov-16 15:48 37.452700 -115.439757 19 17249ft 468kts
09-Nov-16 15:49 37.523908 -115.314950 88 17181ft 461kts
09-Nov-16 15:50 37.456167 -115.184346 155 16350ft 469kts
09-Nov-16 15:51 37.332272 -115.202892 206 16230ft 463kts
09-Nov-16 15:52 37.217901 -115.274272 205 16191ft 434kts
09-Nov-16 15:53 37.111566 -115.339727 204 16268ft 435kts
09-Nov-16 15:54 36.998810 -115.406058 205 16262ft 458kts
09-Nov-16 15:55 36.882280 -115.479197 206 16320ft 472kts
09-Nov-16 15:56 36.765787 -115.558724 219 16317ft 481kts
09-Nov-16 15:57 36.708091 -115.704563 270 16249ft 482kts
09-Nov-16 15:58 36.760643 -115.853692 316 16229ft 484kts
09-Nov-16 15:59 36.884139 -115.908884 6 16278ft 485kts
09-Nov-16 16:00 36.977562 -115.836380 55 16193ft 488kts
09-Nov-16 16:01 36.979694 -115.678237 123 16233ft 485kts
09-Nov-16 16:02 36.864721 -115.599936 175 16178ft 487kts
09-Nov-16 16:03 36.731030 -115.617680 168 16368ft 484kts
09-Nov-16 16:04 36.625110 -115.515113 133 16131ft 490kts
09-Nov-16 16:05 36.534512 -115.389903 129 15582ft 470kts
09-Nov-16 16:06 36.451547 -115.268036 127 12720ft 452kts
09-Nov-16 16:07 36.370627 -115.132396 124 11862ft 522kts
09-Nov-16 16:08 36.287129 -114.977416 114 11724ft 527kts
09-Nov-16 16:09 36.322882 -114.840769 9 7071ft 464kts
09-Nov-16 16:10 36.358100 -114.906344 217 5347ft 361kts
09-Nov-16 16:11 36.289811 -114.977768 220 4103ft 285kts
09-Nov-16 16:12 36.231067 -115.042453 241 3812ft 274kts
09-Nov-16 16:13 36.277664 -115.038478 80 3529ft 238kts
09-Nov-16 16:14 36.241661 -115.030422 219 1855ft 113kts
09-Nov-16 16:15 36.234745 -115.039395 309 1852ft 0kts
09-Nov-16 16:16 36.236086 -115.040532 131 1853ft 2kts
09-Nov-16 16:17 36.236076 -115.040518 130 1853ft 0kts
09-Nov-16 16:18 36.236076 -115.040518 130 1853ft 0kts
09-Nov-16 16:19 36.236076 -115.040518 130 1853ft 0kts
09-Nov-16 16:20 36.236076 -115.040518 130 1853ft 0kts
09-Nov-16 16:21 36.236076 -115.040518 130 1853ft 0kts
09-Nov-16 16:22 36.236076 -115.040518 130 1853ft 0kts
09-Nov-16 16:23 36.236076 -115.040518 130 1853ft 0kts
09-Nov-16 16:24 36.236076 -115.040518 130 1853ft 0kts
09-Nov-16 16:25 36.236076 -115.040518 130 1853ft 0kts
09-Nov-16 16:26 36.236076 -115.040518 130 1853ft 0kts
09-Nov-16 16:27 36.236076 -115.040518 130 1853ft 0kts
09-Nov-16 16:28 36.236076 -115.040518 130 1853ft 0kts
09-Nov-16 16:29 36.236076 -115.040518 130 1853ft 0kts
09-Nov-16 16:30 36.236076 -115.040518 130 1853ft 0kts

Navigation Log

Ident Type
1. KLSV Airport
2. KLSV Airport